Latest Weather Observations for Mount William

IDV60801

Issued at 3:32 pm EDT Saturday 22 February 2020 (issued every 10 minutes, with the page automatically refreshed every 10 minutes)

About weather observations | Map of weather stations | Latest weather observations for VIC | Other Formats
Station Details ID: 079103 Name: MOUNT WILLIAM Lat: -37.30 Lon: 142.60 Height: 1150.0 m
Data from the previous 72 hours. | See also: Recent months at Mount William
Date/Time
EDT
Temp
°C
App
Temp
°C
Dew
Point
°C
Rel
Hum
%
Delta-T
°C
Wind Press
QNH
hPa
Press
MSL
hPa
Rain since
9am
mm
Dir  Spd
km/h
Gust
km/h
Spd
kts
Gust
kts
22/03:30pm 14.7 12.0 9.1 69 3.0 S 13 30 7 16 - - 0.0
22/03:00pm 14.4 11.0 9.0 70 2.9 S 17 30 9 16 - - 0.0
22/02:30pm 14.7 11.1 8.4 66 3.4 S 17 24 9 13 - - 0.0
22/02:00pm 13.7 10.6 9.0 73 2.5 S 15 22 8 12 - - 0.0
22/01:30pm 12.9 9.8 8.8 76 2.2 S 15 20 8 11 - - 0.0
22/01:00pm 12.2 9.1 9.0 81 1.7 S 15 19 8 10 - - 0.0
22/12:30pm 11.2 8.6 9.3 88 1.0 S 13 20 7 11 - - 0.0
22/12:00pm 10.4 6.6 9.2 92 0.6 S 19 26 10 14 - - 0.0
22/11:30am 9.4 5.6 9.1 98 0.2 S 19 24 10 13 - - 0.0
22/11:00am 7.8 3.5 7.8 100 0.0 S 20 26 11 14 - - 0.0
22/10:30am 7.2 2.4 7.2 100 0.0 S 22 26 12 14 - - 0.0
22/10:00am 6.3 0.5 6.3 100 0.0 S 26 32 14 17 - - 0.0
22/09:30am 6.1 -0.9 6.1 100 0.0 SSE 32 39 17 21 - - 0.0
22/09:00am 5.8 -0.9 5.8 100 0.0 S 30 39 16 21 - - 0.2
22/08:30am 5.4 -1.9 5.4 100 0.0 S 33 41 18 22 - - 0.2
22/08:00am 5.4 -2.3 5.4 100 0.0 S 35 43 19 23 - - 0.0
22/07:30am 4.8 -3.4 4.8 100 0.0 S 37 43 20 23 - - 0.0
22/07:00am 4.5 -3.7 4.5 100 0.0 S 37 43 20 23 - - 0.0
22/06:30am 4.3 -4.4 4.3 100 0.0 S 39 43 21 23 - - 0.0
22/06:00am 4.3 -4.4 4.3 100 0.0 S 39 46 21 25 - - 0.0
22/05:30am 4.5 -4.1 4.5 100 0.0 S 39 44 21 24 - - 0.0
22/05:00am 4.7 -4.7 4.7 100 0.0 S 43 48 23 26 - - 0.0
22/04:30am 4.7 -4.7 4.7 100 0.0 S 43 52 23 28 - - 0.0
22/04:00am 5.2 -4.1 5.2 100 0.0 SSE 43 52 23 28 - - 0.0
22/03:30am 5.1 -3.8 5.1 100 0.0 S 41 48 22 26 - - 0.0
22/03:00am 5.2 -4.1 5.2 100 0.0 SSE 43 50 23 27 - - 0.0
22/02:30am 5.4 -3.8 5.4 100 0.0 SSE 43 48 23 26 - - 0.0
22/02:00am 5.3 -4.1 5.3 100 0.0 SSE 44 50 24 27 - - 0.0
22/01:30am 5.5 -3.3 5.5 100 0.0 SSE 41 52 22 28 - - 0.0
22/01:00am 5.3 -3.6 5.3 100 0.0 SSE 41 52 22 28 - - 0.0
22/12:30am 5.3 -3.2 5.3 100 0.0 SSE 39 48 21 26 - - 0.0
22/12:00am 5.6 -2.0 5.6 100 0.0 SSE 35 46 19 25 - - 0.0
 
Date/Time
EDT
Temp
°C
App
Temp
°C
Dew
Point
°C
Rel
Hum
%
Delta-T
°C
Wind Press
QNH
hPa
Press
MSL
hPa
Rain since
9am
mm
Dir  Spd
km/h
Gust
km/h
Spd
kts
Gust
kts
21/11:30pm 5.8 -2.2 5.8 100 0.0 SSE 37 50 20 27 - - 0.0
21/11:00pm 6.0 -3.7 6.0 100 0.0 SSE 46 56 25 30 - - 0.0
21/10:30pm 6.2 -2.8 6.2 100 0.0 SSE 43 54 23 29 - - 0.0
21/10:00pm 6.2 -2.8 6.2 100 0.0 S 43 54 23 29 - - 0.0
21/09:30pm 5.9 -3.4 5.9 100 0.0 S 44 57 24 31 - - 0.0
21/09:00pm 6.3 -2.4 5.9 97 0.2 S 41 56 22 30 - - 0.0
21/08:30pm 6.9 -2.2 5.8 93 0.5 S 43 54 23 29 - - 0.0
21/08:00pm 7.8 -0.9 5.8 87 1.0 S 41 52 22 28 - - 0.0
21/07:30pm 8.9 1.9 6.0 82 1.4 S 32 46 17 25 - - 0.0
21/07:00pm 9.8 2.9 6.3 79 1.7 S 32 44 17 24 - - 0.0
21/06:30pm 10.2 3.6 6.0 75 2.1 SSW 30 48 16 26 - - 0.0
21/06:14pm 10.5 4.3 6.3 75 2.1 SSW 28 46 15 25 - - 0.0
21/06:00pm 11.1 6.1 6.6 74 2.3 SSW 22 35 12 19 - - 0.0
21/05:30pm 11.1 5.7 6.3 72 2.4 SSW 24 35 13 19 - - 0.0
21/05:00pm 11.4 5.7 6.5 72 2.5 SSW 26 39 14 21 - - 0.0
21/04:30pm 11.6 7.3 7.1 74 2.3 SSW 19 32 10 17 - - 0.0
21/04:00pm 10.9 5.2 6.5 74 2.2 SSW 26 41 14 22 - - 0.0
21/03:30pm 11.2 6.1 7.5 78 1.9 S 24 37 13 20 - - 0.0
21/03:00pm 10.5 5.0 7.7 83 1.4 S 26 44 14 24 - - 0.0
21/02:30pm 9.9 5.8 8.5 91 0.7 S 20 33 11 18 - - 0.0
21/02:00pm 8.4 2.7 8.3 99 0.1 SSW 28 43 15 23 - - 0.0
21/01:30pm 10.1 4.4 8.4 89 0.9 S 28 43 15 23 - - 0.0
21/01:00pm 9.7 4.5 8.9 95 0.4 S 26 35 14 19 - - 0.0
21/12:30pm 9.4 2.9 8.0 91 0.7 S 32 44 17 24 - - 0.0
21/12:00pm 8.5 1.7 7.6 94 0.5 S 33 44 18 24 - - 0.0
21/11:30am 7.5 0.7 7.5 100 0.0 S 33 46 18 25 - - 0.0
21/11:00am 6.7 -1.9 6.7 100 0.0 S 41 54 22 29 - - 0.0
21/10:30am 6.2 -3.0 6.2 100 0.0 S 44 56 24 30 - - 0.0
21/10:00am 6.3 -2.7 6.3 100 0.0 S 43 56 23 30 - - 0.0
21/09:30am 6.1 -3.0 6.1 100 0.0 S 43 54 23 29 - - 0.0
21/09:00am 6.2 -3.0 6.2 100 0.0 S 44 56 24 30 - - 0.4
21/08:30am 5.7 -4.4 5.7 100 0.0 S 48 57 26 31 - - 0.2
21/08:00am 5.5 -4.6 5.5 100 0.0 S 48 61 26 33 - - 0.2
21/07:30am 6.0 -3.3 6.0 100 0.0 S 44 57 24 31 - - 0.2
21/07:00am 6.0 -3.7 6.0 100 0.0 S 46 57 25 31 - - 0.2
21/06:30am 5.6 -4.5 5.6 100 0.0 S 48 61 26 33 - - 0.2
21/06:00am 5.7 -4.4 5.7 100 0.0 S 48 59 26 32 - - 0.2
21/05:30am 5.8 -3.5 5.8 100 0.0 S 44 56 24 30 - - 0.0
21/05:00am 5.8 -3.5 5.8 100 0.0 S 44 56 24 30 - - 0.0
21/04:30am 5.7 -4.0 5.7 100 0.0 S 46 56 25 30 - - 0.0
21/04:00am 5.5 -3.9 5.5 100 0.0 S 44 54 24 29 - - 0.0
21/03:30am 5.4 -4.4 5.4 100 0.0 S 46 54 25 29 - - 0.0
21/03:00am 5.2 -3.7 5.2 100 0.0 S 41 50 22 27 - - 0.0
21/02:30am 5.0 -4.3 5.0 100 0.0 S 43 52 23 28 - - 0.0
21/02:00am 4.9 -4.0 4.9 100 0.0 S 41 54 22 29 - - 0.0
21/01:30am 4.9 -3.7 4.9 100 0.0 S 39 52 21 28 - - 0.0
21/01:00am 4.9 -4.4 4.9 100 0.0 S 43 54 23 29 - - 0.0
21/12:30am 4.9 -4.4 4.9 100 0.0 S 43 52 23 28 - - 0.0
21/12:00am 5.3 -3.9 5.3 100 0.0 S 43 52 23 28 - - 0.0
 
Date/Time
EDT
Temp
°C
App
Temp
°C
Dew
Point
°C
Rel
Hum
%
Delta-T
°C
Wind Press
QNH
hPa
Press
MSL
hPa
Rain since
9am
mm
Dir  Spd
km/h
Gust
km/h
Spd
kts
Gust
kts
20/11:30pm 5.1 -3.8 5.1 100 0.0 SSW 41 54 22 29 - - 0.0
20/11:00pm 5.5 -1.6 5.5 100 0.0 S 32 52 17 28 - - 0.0
20/10:52pm 5.4 -1.9 5.4 100 0.0 SSW 33 54 18 29 - - 0.0
20/10:30pm 5.3 -2.4 5.3 100 0.0 SSW 35 46 19 25 - - 0.0
20/10:00pm 5.6 0.4 5.6 100 0.0 SW 22 33 12 18 - - 0.0
20/09:30pm 6.0 0.9 6.0 100 0.0 SW 22 28 12 15 - - 0.0
20/09:00pm 6.3 1.3 6.3 100 0.0 SW 22 32 12 17 - - 0.0
20/08:30pm 6.6 1.3 6.6 100 0.0 SW 24 35 13 19 - - 0.0
20/08:00pm 7.4 2.5 7.0 97 0.2 SW 22 35 12 19 - - 0.0
20/07:30pm 8.4 3.5 7.0 91 0.7 SW 22 33 12 18 - - 0.0
20/07:00pm 8.9 3.4 7.4 90 0.8 SW 26 37 14 20 - - 0.0
20/06:30pm 10.2 5.7 8.5 89 0.9 SW 22 35 12 19 - - 0.0
20/06:00pm 10.3 5.8 8.6 89 0.9 SW 22 35 12 19 - - 0.0
20/05:30pm 9.9 6.3 8.3 90 0.8 SW 17 26 9 14 - - 0.0
20/05:00pm 10.1 7.5 9.2 94 0.5 WSW 13 20 7 11 - - 0.0
20/04:30pm 10.4 7.0 9.3 93 0.6 WSW 17 32 9 17 - - 0.0
20/04:00pm 10.7 8.8 10.4 98 0.2 WSW 11 28 6 15 - - 0.0
20/03:30pm 9.3 5.6 9.3 100 0.0 WSW 19 32 10 17 - - 0.0
20/03:00pm 9.1 5.3 9.1 100 0.0 SW 19 30 10 16 - - 0.0
20/02:30pm 8.7 6.3 8.7 100 0.0 SW 11 22 6 12 - - 0.0
20/02:00pm 8.3 5.4 8.3 100 0.0 SW 13 28 7 15 - - 0.0
20/01:30pm 7.9 4.2 7.9 100 0.0 SW 17 30 9 16 - - 0.0
20/01:00pm 7.4 3.9 7.4 100 0.0 SW 15 24 8 13 - - 0.0
20/12:30pm 6.8 2.8 6.8 100 0.0 SW 17 26 9 14 - - 0.0
20/12:00pm 6.6 2.2 6.6 100 0.0 SW 19 35 10 19 - - 0.0
20/11:30am 6.0 2.2 6.0 100 0.0 SSW 15 24 8 13 - - 0.0
20/11:00am 6.1 1.0 6.1 100 0.0 SSW 22 41 12 22 - - 0.0
20/10:30am 5.8 1.2 5.8 100 0.0 SSW 19 30 10 16 - - 0.0
20/10:00am 5.2 -0.8 5.2 100 0.0 S 26 43 14 23 - - 0.0
20/09:30am 4.9 -1.9 4.9 100 0.0 S 30 44 16 24 - - 0.0
20/09:00am 4.5 -3.0 4.5 100 0.0 S 33 50 18 27 - - 3.4
20/08:32am 4.3 -3.2 4.3 100 0.0 S 33 52 18 28 - - 3.4
20/08:30am 4.3 -3.6 4.3 100 0.0 SSW 35 52 19 28 - - 3.4
20/08:25am 4.3 -4.4 4.3 100 0.0 SSW 39 59 21 32 - - 3.4
20/08:00am 4.2 -5.4 4.2 100 0.0 S 44 59 24 32 - - 3.4
20/07:30am 4.1 -5.0 4.1 100 0.0 S 41 52 22 28 - - 3.2
20/07:06am 3.7 -5.8 3.7 100 0.0 S 43 61 23 33 - - 3.2
20/07:00am 3.6 -6.2 3.6 100 0.0 S 44 57 24 31 - - 3.2
20/06:30am 3.9 -6.6 3.9 100 0.0 S 48 59 26 32 - - 3.2
20/06:00am 3.9 -5.8 3.9 100 0.0 S 44 56 24 30 - - 3.2
20/05:30am 4.4 -6.0 4.4 100 0.0 S 48 61 26 33 - - 3.2
20/05:00am 4.5 -5.5 4.5 100 0.0 S 46 59 25 32 - - 3.2
20/04:30am 4.5 -6.2 4.5 100 0.0 S 50 61 27 33 - - 3.2
20/04:00am 3.9 -4.5 3.9 100 0.0 SSW 37 57 20 31 - - 3.2
20/03:59am 3.8 -4.2 3.8 100 0.0 SSW 35 54 19 29 - - 3.2
20/03:30am 3.9 -2.0 3.9 100 0.0 SW 24 35 13 19 - - 3.2
20/03:18am 3.9 -2.4 3.9 100 0.0 SSW 26 41 14 22 - - 3.2
20/03:00am 4.0 -5.5 4.0 100 0.0 SSW 43 52 23 28 - - 3.2
20/02:30am 3.8 -5.9 3.8 100 0.0 SSW 44 52 24 28 - - 3.2
20/02:00am 4.4 -5.2 4.4 100 0.0 SSW 44 56 24 30 - - 3.2
20/01:30am 4.5 -5.1 4.5 100 0.0 SSW 44 56 24 30 - - 3.2
20/01:00am 4.2 -4.1 4.2 100 0.0 SSW 37 50 20 27 - - 3.2
20/12:30am 4.6 -3.3 4.6 100 0.0 SSW 35 48 19 26 - - 3.2
20/12:00am 4.7 -2.6 4.7 100 0.0 SSW 32 44 17 24 - - 3.2
 
Date/Time
EDT
Temp
°C
App
Temp
°C
Dew
Point
°C
Rel
Hum
%
Delta-T
°C
Wind Press
QNH
hPa
Press
MSL
hPa
Rain since
9am
mm
Dir  Spd
km/h
Gust
km/h
Spd
kts
Gust
kts
19/11:34pm 4.7 -2.8 4.7 100 0.0 SW 33 52 18 28 - - 3.2
19/11:30pm 4.8 -3.0 4.8 100 0.0 SW 35 54 19 29 - - 3.2
19/11:13pm 4.7 -2.2 4.7 100 0.0 SW 30 50 16 27 - - 3.2
19/11:00pm 4.9 -1.6 4.9 100 0.0 SW 28 41 15 22 - - 3.2
19/10:30pm 5.2 -1.6 5.2 100 0.0 SW 30 41 16 22 - - 3.2
19/10:00pm 5.5 -0.5 5.5 100 0.0 SW 26 37 14 20 - - 3.2
19/09:30pm 5.8 -0.1 5.8 100 0.0 SW 26 39 14 21 - - 3.2
19/09:07pm 5.7 -1.9 5.7 100 0.0 SW 35 54 19 29 - - 3.2
19/09:00pm 5.7 -1.9 5.7 100 0.0 SW 35 46 19 25 - - 3.2
19/08:30pm 6.2 -0.8 6.2 100 0.0 SSW 32 54 17 29 - - 3.2
19/08:26pm 6.1 -1.1 6.1 100 0.0 SSW 33 54 18 29 - - 3.2
19/08:00pm 6.2 -2.1 6.2 100 0.0 SW 39 52 21 28 - - 3.2
19/07:30pm 6.8 0.4 6.8 100 0.0 SW 30 44 16 24 - - 3.2
19/07:05pm 6.8 -0.2 6.8 100 0.0 SW 33 54 18 29 - - 3.2
19/07:00pm 6.8 -1.0 6.8 100 0.0 SW 37 54 20 29 - - 3.2
19/06:30pm 7.0 1.0 7.0 100 0.0 WSW 28 46 15 25 - - 3.2
19/06:00pm 7.0 -0.3 7.0 100 0.0 SW 35 56 19 30 - - 3.2
19/05:56pm 7.1 -0.2 7.1 100 0.0 SW 35 56 19 30 - - 3.2
19/05:30pm 6.9 -1.2 6.9 100 0.0 WSW 39 54 21 29 - - 3.2
19/05:00pm 7.3 0.0 7.3 100 0.0 SW 35 57 19 31 - - 3.2
19/04:45pm 7.2 -0.1 7.2 100 0.0 SW 35 54 19 29 - - 3.2
19/04:30pm 7.4 -0.2 7.4 100 0.0 SW 37 50 20 27 - - 3.2
19/04:00pm 7.7 0.5 7.7 100 0.0 SW 35 54 19 29 - - 3.0

Other formats

Comma delimited format used in spreadsheet applications
http://www.bom.gov.au/fwo/IDV60801/IDV60801.94833.axf

JavaScript Object Notation format (JSON) in row-major order
http://www.bom.gov.au/fwo/IDV60801/IDV60801.94833.json

Data quality

Most of these data are generated automatically and are frequently updated. Quality checks on data are not normally performed. It is possible for incorrect values to appear. Refer to information at About Latest Weather Observations and please check the disclaimer before using these data.